sensor_id;sensor_type;location;lat;lon;timestamp;temperature;humidity
35563;DHT22;21665;40.108;18.302;2022-09-02T00:00:49;21.90;99.90
35563;DHT22;21665;40.108;18.302;2022-09-02T00:03:46;21.80;99.90
35563;DHT22;21665;40.108;18.302;2022-09-02T00:06:19;21.70;99.90
35563;DHT22;21665;40.108;18.302;2022-09-02T00:09:20;21.80;99.90
35563;DHT22;21665;40.108;18.302;2022-09-02T00:11:59;21.80;99.90
35563;DHT22;21665;40.108;18.302;2022-09-02T00:14:43;21.70;99.90
35563;DHT22;21665;40.108;18.302;2022-09-02T00:17:19;21.70;99.90
35563;DHT22;21665;40.108;18.302;2022-09-02T00:19:57;21.70;99.90
35563;DHT22;21665;40.108;18.302;2022-09-02T00:22:34;21.70;99.90
35563;DHT22;21665;40.108;18.302;2022-09-02T00:25:04;21.70;99.90
35563;DHT22;21665;40.108;18.302;2022-09-02T00:27:39;21.80;99.90
35563;DHT22;21665;40.108;18.302;2022-09-02T00:30:15;21.90;99.90
35563;DHT22;21665;40.108;18.302;2022-09-02T00:32:43;21.90;99.90
35563;DHT22;21665;40.108;18.302;2022-09-02T00:35:11;21.90;99.90
35563;DHT22;21665;40.108;18.302;2022-09-02T00:37:38;21.90;99.90
35563;DHT22;21665;40.108;18.302;2022-09-02T00:40:06;21.80;99.90
35563;DHT22;21665;40.108;18.302;2022-09-02T00:42:50;21.90;99.90
35563;DHT22;21665;40.108;18.302;2022-09-02T00:55:48;21.90;99.90
35563;DHT22;21665;40.108;18.302;2022-09-02T00:58:30;22.00;99.90
35563;DHT22;21665;40.108;18.302;2022-09-02T01:01:19;22.00;99.90
35563;DHT22;21665;40.108;18.302;2022-09-02T01:03:58;22.10;99.90
35563;DHT22;21665;40.108;18.302;2022-09-02T01:06:57;22.20;99.90
35563;DHT22;21665;40.108;18.302;2022-09-02T01:10:26;22.30;99.90
35563;DHT22;21665;40.108;18.302;2022-09-02T01:13:14;22.30;99.90
35563;DHT22;21665;40.108;18.302;2022-09-02T01:16:51;22.30;99.90
35563;DHT22;21665;40.108;18.302;2022-09-02T01:30:05;22.30;99.90
35563;DHT22;21665;40.108;18.302;2022-09-02T01:33:12;22.30;99.90
35563;DHT22;21665;40.108;18.302;2022-09-02T01:35:50;22.20;99.90
35563;DHT22;21665;40.108;18.302;2022-09-02T01:38:26;22.00;99.90
35563;DHT22;21665;40.108;18.302;2022-09-02T01:44:32;21.80;99.90
35563;DHT22;21665;40.108;18.302;2022-09-02T01:50:37;21.70;99.90
35563;DHT22;21665;40.108;18.302;2022-09-02T01:53:16;21.80;99.90
35563;DHT22;21665;40.108;18.302;2022-09-02T01:59:59;21.80;99.90
35563;DHT22;21665;40.108;18.302;2022-09-02T02:03:20;21.80;99.90
35563;DHT22;21665;40.108;18.302;2022-09-02T02:06:13;21.80;99.90
35563;DHT22;21665;40.108;18.302;2022-09-02T02:08:55;21.80;99.90
35563;DHT22;21665;40.108;18.302;2022-09-02T02:11:32;21.80;99.90
35563;DHT22;21665;40.108;18.302;2022-09-02T02:14:00;21.70;99.90
35563;DHT22;21665;40.108;18.302;2022-09-02T02:16:27;21.70;99.90
35563;DHT22;21665;40.108;18.302;2022-09-02T02:18:54;21.70;99.90
35563;DHT22;21665;40.108;18.302;2022-09-02T02:21:21;21.70;99.90
35563;DHT22;21665;40.108;18.302;2022-09-02T02:23:56;21.70;99.90
35563;DHT22;21665;40.108;18.302;2022-09-02T02:26:32;21.70;99.90
35563;DHT22;21665;40.108;18.302;2022-09-02T02:29:19;21.70;99.90
35563;DHT22;21665;40.108;18.302;2022-09-02T02:31:49;21.70;99.90
35563;DHT22;21665;40.108;18.302;2022-09-02T02:34:17;21.70;99.90
35563;DHT22;21665;40.108;18.302;2022-09-02T02:36:46;21.70;99.90
35563;DHT22;21665;40.108;18.302;2022-09-02T02:39:27;21.70;99.90
35563;DHT22;21665;40.108;18.302;2022-09-02T02:41:57;21.70;99.90
35563;DHT22;21665;40.108;18.302;2022-09-02T02:44:51;21.70;99.90
35563;DHT22;21665;40.108;18.302;2022-09-02T02:47:52;21.60;99.90
35563;DHT22;21665;40.108;18.302;2022-09-02T02:50:39;21.60;99.90
35563;DHT22;21665;40.108;18.302;2022-09-02T02:53:10;21.60;99.90
35563;DHT22;21665;40.108;18.302;2022-09-02T02:56:07;21.60;99.90
35563;DHT22;21665;40.108;18.302;2022-09-02T02:59:16;21.60;99.90
35563;DHT22;21665;40.108;18.302;2022-09-02T03:02:15;21.60;99.90
35563;DHT22;21665;40.108;18.302;2022-09-02T03:05:05;21.60;99.90
35563;DHT22;21665;40.108;18.302;2022-09-02T03:08:09;21.70;99.90
35563;DHT22;21665;40.108;18.302;2022-09-02T03:11:04;21.60;99.90
35563;DHT22;21665;40.108;18.302;2022-09-02T03:13:43;21.50;99.90
35563;DHT22;21665;40.108;18.302;2022-09-02T03:20:26;21.40;99.90
35563;DHT22;21665;40.108;18.302;2022-09-02T03:35:30;21.40;99.90
35563;DHT22;21665;40.108;18.302;2022-09-02T03:38:29;21.40;99.90
35563;DHT22;21665;40.108;18.302;2022-09-02T03:41:30;21.40;99.90
35563;DHT22;21665;40.108;18.302;2022-09-02T03:44:48;21.30;99.90
35563;DHT22;21665;40.108;18.302;2022-09-02T03:47:36;21.30;99.90
35563;DHT22;21665;40.108;18.302;2022-09-02T03:51:03;21.30;99.90
35563;DHT22;21665;40.108;18.302;2022-09-02T04:00:29;21.20;99.90
35563;DHT22;21665;40.108;18.302;2022-09-02T04:03:42;21.20;99.90
35563;DHT22;21665;40.108;18.302;2022-09-02T04:06:30;21.20;99.90
35563;DHT22;21665;40.108;18.302;2022-09-02T04:09:27;21.20;99.90
35563;DHT22;21665;40.108;18.302;2022-09-02T04:12:38;21.20;99.90
35563;DHT22;21665;40.108;18.302;2022-09-02T04:15:45;21.20;99.90
35563;DHT22;21665;40.108;18.302;2022-09-02T04:18:39;21.20;99.90
35563;DHT22;21665;40.108;18.302;2022-09-02T04:21:42;21.10;99.90
35563;DHT22;21665;40.108;18.302;2022-09-02T04:27:48;21.00;99.90
35563;DHT22;21665;40.108;18.302;2022-09-02T04:30:39;21.00;99.90
35563;DHT22;21665;40.108;18.302;2022-09-02T04:33:14;21.00;99.90
35563;DHT22;21665;40.108;18.302;2022-09-02T04:38:42;20.90;99.90
35563;DHT22;21665;40.108;18.302;2022-09-02T04:41:33;20.90;99.90
35563;DHT22;21665;40.108;18.302;2022-09-02T04:44:24;20.90;99.90
35563;DHT22;21665;40.108;18.302;2022-09-02T04:47:02;20.90;99.90
35563;DHT22;21665;40.108;18.302;2022-09-02T04:50:04;20.90;99.90
35563;DHT22;21665;40.108;18.302;2022-09-02T04:52:38;21.00;99.90
35563;DHT22;21665;40.108;18.302;2022-09-02T04:58:18;21.00;99.90
35563;DHT22;21665;40.108;18.302;2022-09-02T05:04:54;21.00;99.90
35563;DHT22;21665;40.108;18.302;2022-09-02T05:07:44;21.10;99.90
35563;DHT22;21665;40.108;18.302;2022-09-02T05:10:47;21.20;99.90
35563;DHT22;21665;40.108;18.302;2022-09-02T05:13:24;21.50;99.90
35563;DHT22;21665;40.108;18.302;2022-09-02T05:15:52;22.40;99.90
35563;DHT22;21665;40.108;18.302;2022-09-02T05:18:20;23.30;99.90
35563;DHT22;21665;40.108;18.302;2022-09-02T05:20:47;23.80;99.90
35563;DHT22;21665;40.108;18.302;2022-09-02T05:23:16;23.50;99.90
35563;DHT22;21665;40.108;18.302;2022-09-02T05:25:45;23.30;99.90
35563;DHT22;21665;40.108;18.302;2022-09-02T05:28:14;23.20;99.90
35563;DHT22;21665;40.108;18.302;2022-09-02T05:30:43;22.90;99.90
35563;DHT22;21665;40.108;18.302;2022-09-02T05:33:10;22.70;99.90
35563;DHT22;21665;40.108;18.302;2022-09-02T05:35:40;22.50;99.90
35563;DHT22;21665;40.108;18.302;2022-09-02T05:38:09;22.50;99.90
35563;DHT22;21665;40.108;18.302;2022-09-02T05:40:36;22.90;99.90
35563;DHT22;21665;40.108;18.302;2022-09-02T05:43:07;23.40;99.90
35563;DHT22;21665;40.108;18.302;2022-09-02T05:45:37;24.20;99.90
35563;DHT22;21665;40.108;18.302;2022-09-02T05:48:09;25.20;99.90
35563;DHT22;21665;40.108;18.302;2022-09-02T05:50:56;26.00;99.90
35563;DHT22;21665;40.108;18.302;2022-09-02T05:53:23;25.60;99.90
35563;DHT22;21665;40.108;18.302;2022-09-02T05:55:55;25.00;99.90
35563;DHT22;21665;40.108;18.302;2022-09-02T05:58:23;24.50;99.90
35563;DHT22;21665;40.108;18.302;2022-09-02T06:00:50;24.00;99.90
35563;DHT22;21665;40.108;18.302;2022-09-02T06:03:17;23.50;99.90
35563;DHT22;21665;40.108;18.302;2022-09-02T06:05:55;23.20;99.90
35563;DHT22;21665;40.108;18.302;2022-09-02T06:08:24;23.10;99.90
35563;DHT22;21665;40.108;18.302;2022-09-02T06:10:51;23.30;99.90
35563;DHT22;21665;40.108;18.302;2022-09-02T06:13:22;23.40;99.90
35563;DHT22;21665;40.108;18.302;2022-09-02T06:15:52;23.40;99.90
35563;DHT22;21665;40.108;18.302;2022-09-02T06:18:22;23.40;99.90
35563;DHT22;21665;40.108;18.302;2022-09-02T06:20:50;23.40;99.90
35563;DHT22;21665;40.108;18.302;2022-09-02T06:23:17;23.90;99.90
35563;DHT22;21665;40.108;18.302;2022-09-02T06:25:48;25.10;99.90
35563;DHT22;21665;40.108;18.302;2022-09-02T06:28:15;25.80;99.90
35563;DHT22;21665;40.108;18.302;2022-09-02T06:30:49;26.00;99.90
35563;DHT22;21665;40.108;18.302;2022-09-02T06:33:21;26.20;99.90
35563;DHT22;21665;40.108;18.302;2022-09-02T06:35:51;27.00;99.90
35563;DHT22;21665;40.108;18.302;2022-09-02T06:38:20;27.70;99.90
35563;DHT22;21665;40.108;18.302;2022-09-02T06:40:53;28.40;99.90
35563;DHT22;21665;40.108;18.302;2022-09-02T06:43:34;28.80;99.90
35563;DHT22;21665;40.108;18.302;2022-09-02T06:46:21;29.20;99.90
35563;DHT22;21665;40.108;18.302;2022-09-02T06:48:52;29.30;99.90
35563;DHT22;21665;40.108;18.302;2022-09-02T06:51:41;29.70;99.90
35563;DHT22;21665;40.108;18.302;2022-09-02T06:54:13;29.80;99.90
35563;DHT22;21665;40.108;18.302;2022-09-02T06:56:42;29.80;99.90
35563;DHT22;21665;40.108;18.302;2022-09-02T06:59:17;29.80;99.90
35563;DHT22;21665;40.108;18.302;2022-09-02T07:01:51;29.90;99.90
35563;DHT22;21665;40.108;18.302;2022-09-02T07:04:21;29.20;99.90
35563;DHT22;21665;40.108;18.302;2022-09-02T07:07:09;29.30;99.90
35563;DHT22;21665;40.108;18.302;2022-09-02T07:09:48;29.40;99.90
35563;DHT22;21665;40.108;18.302;2022-09-02T07:12:17;29.60;99.90
35563;DHT22;21665;40.108;18.302;2022-09-02T07:14:53;30.10;99.90
35563;DHT22;21665;40.108;18.302;2022-09-02T07:17:28;30.20;99.90
35563;DHT22;21665;40.108;18.302;2022-09-02T07:20:04;30.10;99.90
35563;DHT22;21665;40.108;18.302;2022-09-02T07:22:46;30.00;99.90
35563;DHT22;21665;40.108;18.302;2022-09-02T07:25:17;29.50;99.90
